ADDS METAR Data INFO
IDs: Format: Raw Decoded Include TAF

Data at: 2007 UTC 19 Oct 2017

KLVS 191953Z AUTO 18009KT 10SM CLR 20/M04 A3013 RMK AO2 SLP126 T02001039
KLVS 191853Z AUTO 20010KT 10SM CLR 21/M04 A3017 RMK AO2 SLP129 T02061044
KLVS 191753Z AUTO 21011G17KT 10SM CLR 20/M04 A3020 RMK AO2 SLP148 T02001044 10200 20022 58009
KLVS 191653Z AUTO VRB03KT 10SM CLR 19/M03 A3021 RMK AO2 SLP154 T01891033
KLVS 191553Z AUTO 36006KT 10SM CLR 14/M02 A3022 RMK AO2 SLP157 T01391017
KLVS 191453Z AUTO 05003KT 10SM CLR 10/M02 A3023 RMK AO2 SLP166 T01001022 53005
KLVS 191353Z AUTO 02005KT 10SM CLR 07/M05 A3022 RMK AO2 SLP167 T00671050
KLVS 191253Z AUTO 04003KT 10SM CLR 03/M04 A3022 RMK AO2 SLP175 T00281044
KLVS 191153Z AUTO 05007KT 10SM CLR 03/M04 A3021 RMK AO2 SLP168 T00281039 10078 20028 55004
KLVS 191053Z AUTO 03007KT 10SM CLR 03/M03 A3021 RMK AO2 SLP151 T00331033
KLVS 190953Z AUTO 03008KT 10SM CLR 05/M03 A3021 RMK AO2 SLP146 T00501033
KLVS 190853Z AUTO 03007KT 10SM CLR 05/M03 A3023 RMK AO2 SLP147 T00501033 56004
KLVS 190753Z AUTO 05006KT 10SM CLR 04/M03 A3023 RMK AO2 SLP152 T00441028
KLVS 190653Z AUTO 35004KT 10SM CLR 08/M04 A3024 RMK AO2 SLP149 T00781039 402440039
KLVS 190553Z AUTO 04005KT 10SM CLR 05/M02 A3024 RMK AO2 SLP158 T00501022 10167 20050 58001
KLVS 190453Z AUTO 08005KT 10SM CLR 06/M01 A3025 RMK AO2 SLP160 T00611011
KLVS 190353Z AUTO 35005KT 10SM CLR 11/M02 A3025 RMK AO2 SLP160 T01111017
KLVS 190253Z AUTO 00000KT 10SM CLR 13/M02 A3025 RMK AO2 SLP159 T01331022 53011
KLVS 190153Z AUTO 12009KT 10SM CLR 14/M03 A3023 RMK AO2 SLP167 T01441028
KLVS 190053Z AUTO 11009KT 10SM CLR 15/M04 A3021 RMK AO2 SLP162 T01501044
KLVS 182353Z AUTO 12005KT 10SM CLR 17/M03 A3021 RMK AO2 SLP148 T01671033 10244 20167 52002
KLVS 182253Z AUTO 08005KT 10SM CLR 22/M06 A3020 RMK AO2 SLP136 T02221056
KLVS 182153Z AUTO 10007KT 10SM CLR 22/M09 A3020 RMK AO2 SLP136 T02221089
KLVS 182053Z AUTO VRB05KT 10SM CLR 24/M11 A3020 RMK AO2 SLP125 T02441106 57014
KLVS 181953Z AUTO VRB04KT 10SM CLR 24/M12 A3021 RMK AO2 SLP134 T02391117
KLVS 181853Z AUTO 06005KT 10SM CLR 23/M11 A3023 RMK AO2 SLP147 T02331111
KLVS 181753Z AUTO 00000KT 10SM CLR 22/M10 A3025 RMK AO2 SLP154 T02221100 10222 20039 50003
KLVS 181653Z AUTO 03005KT 10SM CLR 22/M06 A3025 RMK AO2 SLP153 T02171056
KLVS 181553Z AUTO 36005KT 10SM CLR 17/M03 A3025 RMK AO2 SLP166 T01671033
KLVS 181453Z AUTO 36005KT 10SM CLR 14/M07 A3024 RMK AO2 SLP168 T01391067 53009
KLVS 181353Z AUTO 03006KT 10SM CLR 08/M10 A3022 RMK AO2 SLP165 T00831100
KLVS 181253Z AUTO 36007KT 10SM CLR 07/M12 A3021 RMK AO2 SLP169 T00721122
KLVS 181153Z AUTO 01004KT 10SM CLR 09/M14 A3020 RMK AO2 SLP145 T00941144 10122 20067 55001
KLVS 181053Z AUTO 35006KT 10SM CLR 08/ A3019 RMK AO2 SLP136 T0083 $
KLVS 180953Z AUTO 36009KT 10SM CLR 08/ A3019 RMK AO2 SLP132 T0083 $
KLVS 180853Z AUTO 33007KT 10SM CLR 11/ A3021 RMK AO2 SLP133 T0111 58008 $